createdAt,value
2023-10-18T00:00:55.761Z,0.00
2023-10-18T00:01:55.658Z,0.00
2023-10-18T00:02:56.106Z,0.00
2023-10-18T00:03:55.685Z,0.00
2023-10-18T00:04:55.594Z,0.00
2023-10-18T00:05:55.569Z,0.00
2023-10-18T00:06:55.642Z,0.00
2023-10-18T00:07:55.548Z,0.00
2023-10-18T00:08:55.549Z,0.00
2023-10-18T00:09:55.572Z,0.00
2023-10-18T00:10:55.517Z,0.00
2023-10-18T00:11:55.522Z,0.00
2023-10-18T00:12:55.534Z,0.00
2023-10-18T00:13:55.513Z,0.00
2023-10-18T00:14:55.465Z,0.00
2023-10-18T00:15:55.546Z,0.00
2023-10-18T00:16:55.447Z,0.00
2023-10-18T00:17:55.485Z,0.00
2023-10-18T00:18:55.544Z,0.00
2023-10-18T00:19:55.413Z,0.00
2023-10-18T00:20:55.419Z,0.00
2023-10-18T00:21:55.452Z,0.00
2023-10-18T00:22:55.965Z,0.00
2023-10-18T00:23:55.370Z,0.00
2023-10-18T00:24:55.379Z,0.00
2023-10-18T00:25:55.355Z,0.00
2023-10-18T00:26:55.343Z,0.00
2023-10-18T00:27:55.439Z,0.00
2023-10-18T00:28:55.323Z,0.00
2023-10-18T00:29:55.350Z,0.00
2023-10-18T00:30:55.406Z,0.00
2023-10-18T00:31:55.434Z,0.00
2023-10-18T00:32:55.351Z,0.00
2023-10-18T00:33:55.384Z,0.00
2023-10-18T00:34:55.252Z,0.00
2023-10-18T00:35:55.246Z,0.00
2023-10-18T00:36:55.324Z,0.00
2023-10-18T00:37:55.225Z,0.00
2023-10-18T00:38:55.222Z,0.00
2023-10-18T00:39:55.231Z,0.00
2023-10-18T00:40:55.252Z,0.00
2023-10-18T00:41:55.250Z,0.00
2023-10-18T00:43:55.242Z,0.00
2023-10-18T00:44:55.146Z,0.00
2023-10-18T00:45:55.186Z,0.00
2023-10-18T00:46:55.219Z,0.00
2023-10-18T00:47:55.139Z,0.00
2023-10-18T00:48:55.186Z,0.00
2023-10-18T00:49:55.093Z,0.00
2023-10-18T00:50:55.099Z,0.00
2023-10-18T00:51:55.115Z,0.00
2023-10-18T00:52:55.061Z,0.00
2023-10-18T00:53:55.049Z,0.00
2023-10-18T00:54:55.117Z,0.00
2023-10-18T00:55:55.039Z,0.00
2023-10-18T00:56:55.021Z,0.00
2023-10-18T00:57:55.043Z,0.00
2023-10-18T00:58:55.019Z,0.00
2023-10-18T00:59:55.001Z,0.00
2023-10-18T01:00:55.038Z,0.00
2023-10-18T01:01:55.064Z,0.00
2023-10-18T01:02:55.065Z,0.00
2023-10-18T01:03:55.017Z,0.00
2023-10-18T01:04:54.949Z,0.00
2023-10-18T01:05:54.929Z,0.00
2023-10-18T01:06:55.006Z,0.00
2023-10-18T01:07:55.148Z,0.00
2023-10-18T01:08:54.901Z,0.00
2023-10-18T01:09:54.920Z,0.00
2023-10-18T01:10:54.865Z,0.00
2023-10-18T01:11:54.877Z,0.00
2023-10-18T01:12:54.918Z,0.00
2023-10-18T01:13:54.856Z,0.00
2023-10-18T01:14:54.831Z,0.00
2023-10-18T01:15:54.847Z,0.00
2023-10-18T01:16:54.898Z,0.00
2023-10-18T01:17:54.886Z,0.00
2023-10-18T01:18:54.866Z,0.00
2023-10-18T01:19:54.774Z,0.00
2023-10-18T01:20:54.763Z,0.00
2023-10-18T01:21:54.779Z,0.00
2023-10-18T01:22:54.742Z,0.00
2023-10-18T01:23:54.787Z,0.00
2023-10-18T01:24:54.747Z,0.00
2023-10-18T01:25:54.742Z,0.00
2023-10-18T01:26:54.691Z,0.00
2023-10-18T01:27:54.742Z,0.00
2023-10-18T01:28:54.716Z,0.00
2023-10-18T01:29:54.668Z,0.00
2023-10-18T01:30:54.708Z,0.00
2023-10-18T01:31:54.758Z,0.00
2023-10-18T01:32:54.673Z,0.00
2023-10-18T01:33:54.663Z,0.00
2023-10-18T01:34:54.599Z,0.00
2023-10-18T01:35:54.592Z,0.00
2023-10-18T01:36:54.622Z,0.00
2023-10-18T01:37:54.593Z,0.00
2023-10-18T01:38:54.592Z,0.00
2023-10-18T01:39:54.633Z,0.00
2023-10-18T01:40:54.548Z,0.00
2023-10-18T01:41:54.695Z,0.00
2023-10-18T01:42:54.565Z,0.00
2023-10-18T01:43:54.544Z,0.00
2023-10-18T01:44:54.502Z,0.00
2023-10-18T01:45:54.524Z,0.00
2023-10-18T01:46:54.573Z,0.00
2023-10-18T01:47:54.895Z,0.00
2023-10-18T01:48:54.473Z,0.00
2023-10-18T01:49:54.475Z,0.00
2023-10-18T01:50:54.441Z,0.00
2023-10-18T01:51:54.507Z,0.00
2023-10-18T01:52:54.424Z,0.00
2023-10-18T01:53:54.519Z,0.00
2023-10-18T01:54:54.454Z,0.00
2023-10-18T01:55:54.384Z,0.00
2023-10-18T01:56:54.398Z,0.00
2023-10-18T01:57:54.367Z,0.00
2023-10-18T01:58:54.342Z,0.00
2023-10-18T01:59:54.337Z,0.00
2023-10-18T02:00:54.360Z,0.00
2023-10-18T02:01:54.429Z,0.00
2023-10-18T02:02:54.424Z,0.00
2023-10-18T02:03:54.446Z,0.00
2023-10-18T02:04:54.716Z,0.00
2023-10-18T02:05:54.300Z,0.00
2023-10-18T02:06:54.319Z,0.00
2023-10-18T02:07:54.255Z,0.00
2023-10-18T02:08:54.244Z,0.00
2023-10-18T02:09:54.586Z,0.00
2023-10-18T02:10:54.236Z,0.00
2023-10-18T02:11:54.206Z,0.00
2023-10-18T02:12:54.273Z,0.00
2023-10-18T02:13:54.208Z,0.00
2023-10-18T02:14:54.173Z,0.00
2023-10-18T02:15:54.207Z,0.00
2023-10-18T02:16:54.215Z,0.00
2023-10-18T02:17:54.203Z,0.00
2023-10-18T02:18:54.233Z,0.00
2023-10-18T02:19:54.155Z,0.00
2023-10-18T02:20:54.133Z,0.00
2023-10-18T02:21:54.126Z,0.00
2023-10-18T02:22:54.082Z,0.00
2023-10-18T02:23:54.090Z,0.00
2023-10-18T02:24:54.104Z,0.00
2023-10-18T02:25:54.110Z,0.00
2023-10-18T02:26:54.046Z,0.00
2023-10-18T02:27:54.078Z,0.00
2023-10-18T02:28:54.016Z,0.00
2023-10-18T02:29:54.040Z,0.00
2023-10-18T02:30:54.042Z,0.00
2023-10-18T02:31:54.063Z,0.00
2023-10-18T02:32:54.004Z,0.00
2023-10-18T02:33:54.055Z,0.00
2023-10-18T02:34:54.093Z,0.00
2023-10-18T02:35:54.015Z,0.00
2023-10-18T02:36:53.977Z,0.00
2023-10-18T02:37:53.940Z,0.00
2023-10-18T02:38:53.953Z,0.00
2023-10-18T02:40:04.391Z,0.00
2023-10-18T02:40:54.889Z,0.00
2023-10-18T02:41:53.877Z,0.00
2023-10-18T02:42:53.905Z,0.00
2023-10-18T02:43:53.872Z,0.00
2023-10-18T02:44:53.847Z,0.00
2023-10-18T02:45:53.922Z,0.00
2023-10-18T02:46:53.875Z,0.00
2023-10-18T02:47:53.858Z,0.00
2023-10-18T02:48:53.893Z,0.00
2023-10-18T02:49:53.790Z,0.00
2023-10-18T02:50:53.773Z,0.00
2023-10-18T02:51:53.796Z,0.00
2023-10-18T02:52:53.806Z,0.00
2023-10-18T02:53:53.733Z,0.00
2023-10-18T02:54:53.728Z,0.00
2023-10-18T02:55:53.713Z,0.00
2023-10-18T02:56:53.701Z,0.00
2023-10-18T02:57:53.836Z,0.00
2023-10-18T02:58:53.751Z,0.00
2023-10-18T02:59:53.664Z,0.00
2023-10-18T03:00:53.701Z,0.00
2023-10-18T03:01:53.705Z,0.00
2023-10-18T03:02:53.676Z,0.00
2023-10-18T03:03:53.709Z,0.00
2023-10-18T03:04:53.692Z,0.00
2023-10-18T03:05:53.631Z,0.00
2023-10-18T03:06:53.674Z,0.00
2023-10-18T03:07:53.597Z,0.00
2023-10-18T03:08:53.572Z,0.00
2023-10-18T03:09:53.586Z,0.00
2023-10-18T03:10:53.569Z,0.00
2023-10-18T03:11:53.551Z,0.00
2023-10-18T03:12:53.585Z,0.00
2023-10-18T03:13:53.513Z,0.00
2023-10-18T03:14:53.503Z,0.00
2023-10-18T03:16:01.455Z,0.00
2023-10-18T03:16:54.570Z,0.00
2023-10-18T03:17:53.497Z,0.00
2023-10-18T03:18:53.481Z,0.00
2023-10-18T03:19:53.455Z,0.00
2023-10-18T03:20:53.470Z,0.00
2023-10-18T03:21:53.467Z,0.00
2023-10-18T03:22:53.466Z,0.00
2023-10-18T03:23:53.447Z,0.00
2023-10-18T03:24:53.431Z,0.00
2023-10-18T03:25:53.408Z,0.00
2023-10-18T03:26:53.375Z,0.00
2023-10-18T03:27:53.387Z,0.00
2023-10-18T03:28:53.375Z,0.00
2023-10-18T03:29:54.884Z,0.00
2023-10-18T03:30:53.359Z,0.00
2023-10-18T03:31:53.377Z,0.00
2023-10-18T03:32:53.402Z,0.00
2023-10-18T03:33:53.314Z,0.00
2023-10-18T03:34:53.302Z,0.00
2023-10-18T03:35:53.299Z,0.00
2023-10-18T03:36:53.513Z,0.00
2023-10-18T03:37:53.264Z,0.00
2023-10-18T03:38:53.272Z,0.00
2023-10-18T03:39:53.306Z,0.00
2023-10-18T03:40:53.225Z,0.00
2023-10-18T03:41:53.218Z,0.00
2023-10-18T03:42:53.223Z,0.00
2023-10-18T03:43:53.208Z,0.00
2023-10-18T03:44:53.219Z,0.00
2023-10-18T03:45:53.236Z,0.00
2023-10-18T03:46:53.402Z,0.00
2023-10-18T03:47:53.183Z,0.00
2023-10-18T03:48:53.194Z,0.00
2023-10-18T03:49:53.130Z,0.00
2023-10-18T03:50:55.577Z,0.00
2023-10-18T03:51:53.116Z,0.00
2023-10-18T03:52:53.096Z,0.00
2023-10-18T03:53:53.106Z,0.00
2023-10-18T03:54:53.093Z,0.00
2023-10-18T03:55:53.081Z,0.00
2023-10-18T03:56:53.067Z,0.00
2023-10-18T03:57:53.068Z,0.00
2023-10-18T03:58:53.051Z,0.00
2023-10-18T03:59:53.023Z,0.00
2023-10-18T04:00:53.056Z,0.00
2023-10-18T04:01:53.035Z,0.00
2023-10-18T04:02:53.149Z,0.00
2023-10-18T04:03:53.100Z,0.00
2023-10-18T04:04:52.993Z,0.00
2023-10-18T04:05:52.949Z,0.00
2023-10-18T04:06:53.025Z,0.00
2023-10-18T04:07:52.985Z,0.00
2023-10-18T04:08:52.914Z,0.00
2023-10-18T04:09:52.914Z,0.00
2023-10-18T04:10:52.899Z,0.00
2023-10-18T04:11:52.929Z,0.00
2023-10-18T04:12:52.909Z,0.00
2023-10-18T04:13:52.863Z,0.00
2023-10-18T04:14:52.848Z,0.00
2023-10-18T04:15:52.847Z,0.00
2023-10-18T04:16:52.846Z,0.00
2023-10-18T04:17:52.854Z,0.00
2023-10-18T04:18:52.890Z,0.00
2023-10-18T04:19:52.819Z,0.00
2023-10-18T04:20:52.780Z,0.00
2023-10-18T04:21:52.819Z,0.00
2023-10-18T04:22:52.755Z,0.00
2023-10-18T04:23:52.766Z,0.00
2023-10-18T04:24:52.778Z,0.00
2023-10-18T04:25:52.747Z,0.00
2023-10-18T04:26:52.743Z,0.00
2023-10-18T04:27:52.846Z,0.00
2023-10-18T04:28:52.744Z,0.00
2023-10-18T04:29:52.677Z,0.00
2023-10-18T04:30:52.730Z,0.00
2023-10-18T04:31:52.754Z,0.00
2023-10-18T04:32:52.746Z,0.00
2023-10-18T04:33:52.766Z,0.00
2023-10-18T04:34:52.728Z,0.00
2023-10-18T04:35:52.754Z,0.00
2023-10-18T04:36:52.627Z,0.00
2023-10-18T04:37:52.597Z,0.00
2023-10-18T04:38:52.660Z,0.00
2023-10-18T04:39:52.630Z,0.00
2023-10-18T04:40:52.585Z,0.00
2023-10-18T04:41:52.550Z,0.00
2023-10-18T04:42:54.709Z,0.00
2023-10-18T04:43:52.549Z,0.00
2023-10-18T04:44:52.525Z,0.00
2023-10-18T04:45:52.598Z,0.00
2023-10-18T04:46:52.556Z,0.00
2023-10-18T04:47:52.527Z,0.00
2023-10-18T04:48:52.535Z,0.00
2023-10-18T04:49:52.475Z,0.00
2023-10-18T04:50:52.449Z,0.00
2023-10-18T04:51:52.457Z,0.00
2023-10-18T04:52:52.431Z,0.00
2023-10-18T04:53:52.417Z,0.00
2023-10-18T04:54:52.446Z,0.00
2023-10-18T04:55:52.416Z,0.00
2023-10-18T04:56:52.421Z,0.00
2023-10-18T04:57:52.401Z,0.00
2023-10-18T04:58:52.683Z,0.00
2023-10-18T04:59:52.414Z,0.00
2023-10-18T05:00:52.389Z,0.00
2023-10-18T05:01:52.362Z,0.00
2023-10-18T05:02:52.473Z,0.00
2023-10-18T05:03:52.365Z,0.00
2023-10-18T05:04:52.317Z,0.00
2023-10-18T05:05:52.290Z,0.00
2023-10-18T05:06:52.297Z,0.00
2023-10-18T05:07:52.265Z,0.00
2023-10-18T05:08:52.275Z,0.00
2023-10-18T05:09:52.263Z,0.00
2023-10-18T05:10:52.233Z,0.00
2023-10-18T05:11:52.227Z,0.00
2023-10-18T05:12:52.256Z,0.00
2023-10-18T05:13:52.225Z,0.00
2023-10-18T05:14:53.905Z,0.00
2023-10-18T05:15:52.294Z,0.00
2023-10-18T05:16:52.260Z,0.00
2023-10-18T05:17:52.239Z,0.00
2023-10-18T05:18:52.180Z,0.00
2023-10-18T05:19:52.138Z,0.00
2023-10-18T05:20:53.733Z,0.00
2023-10-18T05:21:52.151Z,0.00
2023-10-18T05:22:52.135Z,0.00
2023-10-18T05:23:52.096Z,0.00
2023-10-18T05:24:52.087Z,0.00
2023-10-18T05:25:52.079Z,0.00
2023-10-18T05:26:52.063Z,0.00
2023-10-18T05:27:52.112Z,0.00
2023-10-18T05:28:52.037Z,0.00
2023-10-18T05:29:52.030Z,0.00
2023-10-18T05:30:52.060Z,5.62
2023-10-18T05:31:52.080Z,5.62
2023-10-18T05:32:52.012Z,5.62
2023-10-18T05:33:52.031Z,5.62
2023-10-18T05:35:06.472Z,5.62
2023-10-18T05:35:53.020Z,5.62
2023-10-18T05:36:52.003Z,5.62
2023-10-18T05:37:51.948Z,5.62
2023-10-18T05:38:51.969Z,5.62
2023-10-18T05:39:51.928Z,11.25
2023-10-18T05:40:51.907Z,11.25
2023-10-18T05:41:51.918Z,11.25
2023-10-18T05:42:51.923Z,11.25
2023-10-18T05:43:51.976Z,11.25
2023-10-18T05:44:51.871Z,16.88
2023-10-18T05:45:51.936Z,16.88
2023-10-18T05:46:52.020Z,16.88
2023-10-18T05:47:51.879Z,16.88
2023-10-18T05:48:51.857Z,22.50
2023-10-18T05:49:51.837Z,22.50
2023-10-18T05:50:51.817Z,22.50
2023-10-18T05:51:51.856Z,22.50
2023-10-18T05:52:51.777Z,22.50
2023-10-18T05:53:51.770Z,28.12
2023-10-18T05:54:51.798Z,28.12
2023-10-18T05:55:51.768Z,28.12
2023-10-18T05:56:51.732Z,28.12
2023-10-18T05:57:51.764Z,33.75
2023-10-18T05:58:51.714Z,33.75
2023-10-18T05:59:51.717Z,33.75
2023-10-18T06:00:51.827Z,39.38
2023-10-18T06:01:51.810Z,39.38
2023-10-18T06:02:51.726Z,45.00
2023-10-18T06:03:51.809Z,45.00
2023-10-18T06:04:51.702Z,50.62
2023-10-18T06:05:51.650Z,50.62
2023-10-18T06:06:51.671Z,50.62
2023-10-18T06:07:51.616Z,50.62
2023-10-18T06:08:51.606Z,56.25
2023-10-18T06:09:51.634Z,56.25
2023-10-18T06:10:51.591Z,67.50
2023-10-18T06:11:51.574Z,78.75
2023-10-18T06:12:51.564Z,84.38
2023-10-18T06:13:51.555Z,73.12
2023-10-18T06:14:51.561Z,90.00
2023-10-18T06:15:51.632Z,84.38
2023-10-18T06:16:51.574Z,78.75
2023-10-18T06:17:51.678Z,84.38
2023-10-18T06:18:51.517Z,95.62
2023-10-18T06:19:51.573Z,90.00
2023-10-18T06:20:51.477Z,106.88
2023-10-18T06:21:51.491Z,191.25
2023-10-18T06:22:51.485Z,320.62
2023-10-18T06:23:51.458Z,371.25
2023-10-18T06:24:51.480Z,286.88
2023-10-18T06:25:51.424Z,225.00
2023-10-18T06:26:51.411Z,348.75
2023-10-18T06:27:51.427Z,438.75
2023-10-18T06:28:51.409Z,348.75
2023-10-18T06:29:51.376Z,444.38
2023-10-18T06:30:51.514Z,511.88
2023-10-18T06:31:51.433Z,528.75
2023-10-18T06:32:51.384Z,601.88
2023-10-18T06:33:51.394Z,669.38
2023-10-18T06:34:51.333Z,680.62
2023-10-18T06:35:51.345Z,703.12
2023-10-18T06:36:51.334Z,776.25
2023-10-18T06:37:51.305Z,787.50
2023-10-18T06:38:51.292Z,804.38
2023-10-18T06:39:51.314Z,826.88
2023-10-18T06:41:04.402Z,832.50
2023-10-18T06:41:52.256Z,883.12
2023-10-18T06:42:51.623Z,911.25
2023-10-18T06:43:51.240Z,905.62
2023-10-18T06:44:51.217Z,911.25
2023-10-18T06:45:51.277Z,911.25
2023-10-18T06:46:51.327Z,967.50
2023-10-18T06:47:51.242Z,1012.50
2023-10-18T06:49:07.600Z,1057.50
2023-10-18T06:49:56.107Z,1074.38
2023-10-18T06:50:52.222Z,1091.25
2023-10-18T06:51:51.274Z,1102.50
2023-10-18T06:52:51.250Z,1091.25
2023-10-18T06:53:51.153Z,1091.25
2023-10-18T06:54:51.130Z,1108.12
2023-10-18T06:55:51.098Z,1136.25
2023-10-18T06:56:51.112Z,1153.12
2023-10-18T06:57:51.240Z,1170.00
2023-10-18T06:58:51.076Z,1181.25
2023-10-18T06:59:51.800Z,1170.00
2023-10-18T07:00:51.097Z,1220.62
2023-10-18T07:01:51.140Z,1288.12
2023-10-18T07:02:51.083Z,1361.25
2023-10-18T07:03:51.155Z,1479.38
2023-10-18T07:04:50.994Z,1513.12
2023-10-18T07:05:51.051Z,1507.50
2023-10-18T07:06:51.057Z,1434.38
2023-10-18T07:07:50.998Z,1445.62
2023-10-18T07:08:51.069Z,1479.38
2023-10-18T07:09:50.995Z,1530.00
2023-10-18T07:11:00.857Z,1552.50
2023-10-18T07:11:52.717Z,1535.62
2023-10-18T07:12:50.933Z,1535.62
2023-10-18T07:13:50.972Z,1558.12
2023-10-18T07:14:50.894Z,1597.50
2023-10-18T07:15:50.930Z,1614.38
2023-10-18T07:16:50.971Z,1625.62
2023-10-18T07:17:50.892Z,1659.38
2023-10-18T07:18:50.868Z,1636.88
2023-10-18T07:19:50.835Z,1642.50
2023-10-18T07:20:50.854Z,1710.00
2023-10-18T07:21:50.848Z,1816.88
2023-10-18T07:22:50.816Z,1833.75
2023-10-18T07:23:50.810Z,1822.50
2023-10-18T07:24:50.813Z,1845.00
2023-10-18T07:26:02.342Z,1828.12
2023-10-18T07:26:51.773Z,1822.50
2023-10-18T07:27:50.761Z,1890.00
2023-10-18T07:28:50.732Z,1878.75
2023-10-18T07:29:50.743Z,1856.25
2023-10-18T07:30:50.716Z,1895.62
2023-10-18T07:31:50.873Z,1968.75
2023-10-18T07:32:50.701Z,1996.88
2023-10-18T07:33:50.696Z,1991.25
2023-10-18T07:34:50.681Z,2019.38
2023-10-18T07:35:50.654Z,2109.38
2023-10-18T07:36:50.671Z,2115.00
2023-10-18T07:37:50.635Z,2058.75
2023-10-18T07:38:50.644Z,2025.00
2023-10-18T07:39:50.867Z,2013.75
2023-10-18T07:40:50.605Z,1951.88
2023-10-18T07:41:50.593Z,1935.00
2023-10-18T07:42:50.612Z,1980.00
2023-10-18T07:43:50.609Z,1912.50
2023-10-18T07:44:50.566Z,2030.62
2023-10-18T07:45:50.581Z,2092.50
2023-10-18T07:46:50.536Z,2182.50
2023-10-18T07:47:50.545Z,2188.12
2023-10-18T07:48:50.752Z,2064.38
2023-10-18T07:49:50.551Z,1884.38
2023-10-18T07:50:50.504Z,1912.50
2023-10-18T07:51:51.092Z,2340.00
2023-10-18T07:52:50.487Z,2373.75
2023-10-18T07:53:50.553Z,2463.75
2023-10-18T07:54:50.483Z,2486.25
2023-10-18T07:55:50.463Z,2458.12
2023-10-18T07:56:50.443Z,2435.62
2023-10-18T07:57:50.481Z,2418.75
2023-10-18T07:58:50.438Z,2283.75
2023-10-18T07:59:50.395Z,2205.00
2023-10-18T08:00:50.467Z,2199.38
2023-10-18T08:01:50.433Z,2086.88
2023-10-18T08:02:50.474Z,1856.25
2023-10-18T08:03:50.730Z,1631.25
2023-10-18T08:04:50.542Z,1344.38
2023-10-18T08:05:50.450Z,1361.25
2023-10-18T08:06:50.607Z,1186.88
2023-10-18T08:07:50.332Z,472.50
2023-10-18T08:08:50.319Z,348.75
2023-10-18T08:09:50.447Z,343.12
2023-10-18T08:10:50.300Z,388.12
2023-10-18T08:11:50.405Z,466.88
2023-10-18T08:12:50.317Z,399.38
2023-10-18T08:13:50.247Z,331.88
2023-10-18T08:14:50.239Z,326.25
2023-10-18T08:15:50.247Z,326.25
2023-10-18T08:16:50.300Z,360.00
2023-10-18T08:17:50.265Z,365.62
2023-10-18T08:18:50.225Z,393.75
2023-10-18T08:19:50.184Z,354.38
2023-10-18T08:20:50.193Z,348.75
2023-10-18T08:21:50.209Z,309.38
2023-10-18T08:22:58.001Z,298.12
2023-10-18T08:23:50.160Z,331.88
2023-10-18T08:24:50.143Z,303.75
2023-10-18T08:25:50.163Z,292.50
2023-10-18T08:26:50.109Z,281.25
2023-10-18T08:27:50.156Z,292.50
2023-10-18T08:28:50.083Z,303.75
2023-10-18T08:29:50.070Z,331.88
2023-10-18T08:30:50.127Z,331.88
2023-10-18T08:31:50.227Z,298.12
2023-10-18T08:32:50.071Z,309.38
2023-10-18T08:33:50.144Z,337.50
2023-10-18T08:34:50.038Z,438.75
2023-10-18T08:35:50.019Z,444.38
2023-10-18T08:36:50.018Z,326.25
2023-10-18T08:37:49.983Z,337.50
2023-10-18T08:38:49.978Z,405.00
2023-10-18T08:39:49.995Z,466.88
2023-10-18T08:40:49.950Z,489.38
2023-10-18T08:41:49.945Z,489.38
2023-10-18T08:42:49.939Z,382.50
2023-10-18T08:43:49.937Z,281.25
2023-10-18T08:44:49.936Z,264.38
2023-10-18T08:45:50.067Z,264.38
2023-10-18T08:46:49.986Z,410.62
2023-10-18T08:47:49.920Z,978.75
2023-10-18T08:48:49.894Z,1507.50
2023-10-18T08:49:49.867Z,1215.00
2023-10-18T08:50:49.897Z,1344.38
2023-10-18T08:51:49.898Z,1350.00
2023-10-18T08:52:49.863Z,736.88
2023-10-18T08:53:49.830Z,759.38
2023-10-18T08:54:49.845Z,2137.50
2023-10-18T08:55:49.787Z,2930.62
2023-10-18T08:56:49.775Z,2446.88
2023-10-18T08:57:49.824Z,2137.50
2023-10-18T08:58:49.781Z,1901.25
2023-10-18T08:59:49.820Z,2160.00
2023-10-18T09:00:49.827Z,2835.00
2023-10-18T09:01:49.799Z,3161.25
2023-10-18T09:02:49.762Z,3251.25
2023-10-18T09:03:49.959Z,3363.75
2023-10-18T09:04:49.766Z,3301.88
2023-10-18T09:05:49.683Z,3121.88
2023-10-18T09:06:49.773Z,2812.50
2023-10-18T09:07:49.669Z,2520.00
2023-10-18T09:08:49.643Z,2463.75
2023-10-18T09:09:49.720Z,2520.00
2023-10-18T09:10:49.682Z,2379.38
2023-10-18T09:11:49.616Z,2593.12
2023-10-18T09:12:49.689Z,2958.75
2023-10-18T09:13:49.678Z,3127.50
2023-10-18T09:14:49.582Z,3133.12
2023-10-18T09:15:59.666Z,3020.62
2023-10-18T09:16:50.627Z,3043.12
2023-10-18T09:17:49.625Z,2953.12
2023-10-18T09:18:49.603Z,3206.25
2023-10-18T09:19:49.518Z,3082.50
2023-10-18T09:20:49.529Z,3150.00
2023-10-18T09:21:49.520Z,3082.50
2023-10-18T09:22:49.510Z,3425.62
2023-10-18T09:23:49.480Z,2829.38
2023-10-18T09:24:49.508Z,2773.12
2023-10-18T09:25:49.501Z,2722.50
2023-10-18T09:26:49.460Z,2829.38
2023-10-18T09:27:49.434Z,3015.00
2023-10-18T09:28:49.441Z,3166.88
2023-10-18T09:29:49.419Z,3335.62
2023-10-18T09:30:49.455Z,3015.00
2023-10-18T09:31:49.490Z,3206.25
2023-10-18T09:32:49.433Z,3448.12
2023-10-18T09:33:49.385Z,3279.38
2023-10-18T09:34:49.363Z,3408.75
2023-10-18T09:35:49.347Z,3425.62
2023-10-18T09:36:49.538Z,3144.38
2023-10-18T09:37:49.341Z,3262.50
2023-10-18T09:38:49.376Z,3048.75
2023-10-18T09:39:49.303Z,3256.88
2023-10-18T09:40:49.295Z,3093.75
2023-10-18T09:41:49.285Z,3223.12
2023-10-18T09:42:49.442Z,3133.12
2023-10-18T09:43:49.267Z,3476.25
2023-10-18T09:44:49.279Z,3150.00
2023-10-18T09:45:49.250Z,3031.88
2023-10-18T09:46:49.340Z,3268.12
2023-10-18T09:47:49.346Z,2958.75
2023-10-18T09:48:49.223Z,2666.25
2023-10-18T09:49:49.211Z,3234.38
2023-10-18T09:50:49.195Z,3515.62
2023-10-18T09:51:49.196Z,3577.50
2023-10-18T09:52:49.200Z,3515.62
2023-10-18T09:53:49.158Z,3380.62
2023-10-18T09:54:49.157Z,3465.00
2023-10-18T09:55:49.154Z,3217.50
2023-10-18T09:56:49.167Z,3307.50
2023-10-18T09:57:49.127Z,3588.75
2023-10-18T09:58:49.110Z,3459.38
2023-10-18T09:59:49.107Z,3701.25
2023-10-18T10:00:49.130Z,3436.88
2023-10-18T10:01:49.185Z,3504.38
2023-10-18T10:02:49.088Z,3628.12
2023-10-18T10:03:49.116Z,3735.00
2023-10-18T10:04:49.050Z,3780.00
2023-10-18T10:05:49.035Z,3723.75
2023-10-18T10:06:49.057Z,3667.50
2023-10-18T10:07:49.009Z,3380.62
2023-10-18T10:08:49.003Z,3510.00
2023-10-18T10:09:48.991Z,3217.50
2023-10-18T10:10:49.001Z,3279.38
2023-10-18T10:11:49.012Z,3408.75
2023-10-18T10:12:48.963Z,3600.00
2023-10-18T10:13:48.951Z,3971.25
2023-10-18T10:14:48.946Z,3780.00
2023-10-18T10:15:48.945Z,4095.00
2023-10-18T10:16:48.991Z,3735.00
2023-10-18T10:18:03.896Z,3808.12
2023-10-18T10:18:49.179Z,3307.50
2023-10-18T10:19:49.009Z,2385.00
2023-10-18T10:20:48.906Z,534.38
2023-10-18T10:21:48.873Z,315.00
2023-10-18T10:22:48.862Z,281.25
2023-10-18T10:23:48.849Z,264.38
2023-10-18T10:24:57.950Z,258.75
2023-10-18T10:25:56.084Z,258.75
2023-10-18T10:26:49.850Z,258.75
2023-10-18T10:27:48.816Z,253.12
2023-10-18T10:28:48.803Z,247.50
2023-10-18T10:29:48.806Z,253.12
2023-10-18T10:30:48.912Z,258.75
2023-10-18T10:31:48.835Z,253.12
2023-10-18T10:32:48.861Z,253.12
2023-10-18T10:33:48.752Z,247.50
2023-10-18T10:34:48.769Z,253.12
2023-10-18T10:35:48.816Z,247.50
2023-10-18T10:36:48.710Z,253.12
2023-10-18T10:37:48.775Z,253.12
2023-10-18T10:38:48.692Z,258.75
2023-10-18T10:39:48.690Z,258.75
2023-10-18T10:40:48.671Z,253.12
2023-10-18T10:41:48.687Z,253.12
2023-10-18T10:42:48.656Z,258.75
2023-10-18T10:43:48.656Z,264.38
2023-10-18T10:44:48.649Z,258.75
2023-10-18T10:45:48.689Z,253.12
2023-10-18T10:46:48.707Z,247.50
2023-10-18T10:47:48.656Z,247.50
2023-10-18T10:48:48.612Z,247.50
2023-10-18T10:49:48.571Z,247.50
2023-10-18T10:50:48.641Z,241.88
2023-10-18T10:51:48.561Z,236.25
2023-10-18T10:52:48.544Z,230.62
2023-10-18T10:53:48.540Z,230.62
2023-10-18T10:54:48.522Z,225.00
2023-10-18T10:55:48.502Z,219.38
2023-10-18T10:56:48.502Z,230.62
2023-10-18T10:57:48.504Z,236.25
2023-10-18T10:58:48.500Z,241.88
2023-10-18T10:59:48.470Z,241.88
2023-10-18T11:00:48.518Z,241.88
2023-10-18T11:01:48.531Z,241.88
2023-10-18T11:02:48.517Z,230.62
2023-10-18T11:03:48.424Z,213.75
2023-10-18T11:04:48.431Z,213.75
2023-10-18T11:05:48.492Z,213.75
2023-10-18T11:06:48.385Z,213.75
2023-10-18T11:07:48.421Z,219.38
2023-10-18T11:08:48.367Z,208.12
2023-10-18T11:09:48.348Z,208.12
2023-10-18T11:10:48.356Z,202.50
2023-10-18T11:11:48.348Z,202.50
2023-10-18T11:12:48.341Z,196.88
2023-10-18T11:13:48.302Z,196.88
2023-10-18T11:14:48.296Z,196.88
2023-10-18T11:15:48.319Z,196.88
2023-10-18T11:16:48.384Z,191.25
2023-10-18T11:17:48.288Z,202.50
2023-10-18T11:18:48.250Z,196.88
2023-10-18T11:19:48.239Z,196.88
2023-10-18T11:20:48.278Z,196.88
2023-10-18T11:21:48.253Z,202.50
2023-10-18T11:22:48.210Z,196.88
2023-10-18T11:23:48.216Z,196.88
2023-10-18T11:24:48.193Z,191.25
2023-10-18T11:25:48.202Z,185.62
2023-10-18T11:26:48.209Z,191.25
2023-10-18T11:27:48.155Z,185.62
2023-10-18T11:28:48.164Z,180.00
2023-10-18T11:29:48.147Z,180.00
2023-10-18T11:30:48.157Z,174.38
2023-10-18T11:31:48.424Z,174.38
2023-10-18T11:32:48.212Z,168.75
2023-10-18T11:33:48.309Z,168.75
2023-10-18T11:34:48.083Z,163.12
2023-10-18T11:35:48.086Z,157.50
2023-10-18T11:36:48.060Z,163.12
2023-10-18T11:37:48.040Z,163.12
2023-10-18T11:38:48.037Z,168.75
2023-10-18T11:39:48.043Z,168.75
2023-10-18T11:40:48.023Z,174.38
2023-10-18T11:41:47.993Z,163.12
2023-10-18T11:42:47.990Z,157.50
2023-10-18T11:43:48.247Z,168.75
2023-10-18T11:44:47.978Z,163.12
2023-10-18T11:45:47.998Z,163.12
2023-10-18T11:46:48.105Z,168.75
2023-10-18T11:47:47.970Z,168.75
2023-10-18T11:48:47.920Z,163.12
2023-10-18T11:49:47.975Z,163.12
2023-10-18T11:50:47.906Z,163.12
2023-10-18T11:51:47.894Z,157.50
2023-10-18T11:52:47.881Z,157.50
2023-10-18T11:53:47.862Z,151.88
2023-10-18T11:54:47.870Z,151.88
2023-10-18T11:55:47.876Z,151.88
2023-10-18T11:56:47.853Z,146.25
2023-10-18T11:57:47.820Z,146.25
2023-10-18T11:58:47.829Z,146.25
2023-10-18T11:59:47.812Z,146.25
2023-10-18T12:00:47.799Z,146.25
2023-10-18T12:01:47.856Z,146.25
2023-10-18T12:02:48.628Z,140.62
2023-10-18T12:03:48.037Z,135.00
2023-10-18T12:04:47.792Z,140.62
2023-10-18T12:05:47.738Z,146.25
2023-10-18T12:06:47.726Z,140.62
2023-10-18T12:07:47.723Z,135.00
2023-10-18T12:08:47.715Z,135.00
2023-10-18T12:09:47.708Z,140.62
2023-10-18T12:10:47.678Z,140.62
2023-10-18T12:11:47.686Z,140.62
2023-10-18T12:12:47.669Z,140.62
2023-10-18T12:13:47.653Z,135.00
2023-10-18T12:14:47.635Z,129.38
2023-10-18T12:15:47.632Z,123.75
2023-10-18T12:16:47.689Z,129.38
2023-10-18T12:17:47.687Z,129.38
2023-10-18T12:18:47.587Z,129.38
2023-10-18T12:19:47.594Z,135.00
2023-10-18T12:20:47.568Z,135.00
2023-10-18T12:21:47.558Z,135.00
2023-10-18T12:22:47.599Z,135.00
2023-10-18T12:23:47.544Z,129.38
2023-10-18T12:24:47.551Z,129.38
2023-10-18T12:25:47.517Z,129.38
2023-10-18T12:26:47.522Z,123.75
2023-10-18T12:27:47.522Z,123.75
2023-10-18T12:28:47.479Z,123.75
2023-10-18T12:29:47.493Z,118.12
2023-10-18T12:30:47.456Z,123.75
2023-10-18T12:31:47.549Z,123.75
2023-10-18T12:32:50.285Z,118.12
2023-10-18T12:33:47.421Z,118.12
2023-10-18T12:34:47.437Z,118.12
2023-10-18T12:35:47.407Z,118.12
2023-10-18T12:36:47.422Z,118.12
2023-10-18T12:37:47.387Z,112.50
2023-10-18T12:38:47.370Z,118.12
2023-10-18T12:39:47.391Z,112.50
2023-10-18T12:40:47.347Z,118.12
2023-10-18T12:41:47.352Z,118.12
2023-10-18T12:42:47.322Z,118.12
2023-10-18T12:43:47.334Z,118.12
2023-10-18T12:44:47.319Z,118.12
2023-10-18T12:45:47.338Z,112.50
2023-10-18T12:46:47.342Z,112.50